Webcam Richtung 27

Webcam27

Webcam Richtung 09

Webcam09

Webcam Richtung Norden

Webcam36

Wetter(Würzburg):
222000Z AUTO 13003G04KT 61KM ////// 22/15 Q1014
		
                         Heute        Morgen
                         22.07        23.07
--------------------------------------------
Beginn der Dämmerung     02:56        02:58
Sonnenaufgang            03:37        03:38
Sonnenuntergang          19:16        19:15
Ende der Dämmerung       19:57        19:56

Alle Zeiten in UTC